Time;durP1;ratioP1;P1;durP2;ratioP2;P2;SDS_P1;SDS_P2;PMS_P1;PMS_P2;Temp;Humidity;BMP_temperature;BMP_pressure;BME280_temperature;BME280_humidity;BME280_pressure;Samples;Min_cycle;Max_cycle;Signal;HPM_P1;HPM_P2
2023/08/13 00:02:34;;;;;;;14.48;6.93;;;;;;;;;;5015850;28;20054;-82
2023/08/13 00:05:06;;;;;;;16.60;6.03;;;;;;;;;;5009756;28;20053;-80
2023/08/13 00:07:40;;;;;;;9.93;4.40;;;;;;;;;;5009443;28;20046;-80
2023/08/13 00:10:10;;;;;;;8.55;3.83;;;;;;;;;;5010764;28;20046;-81
2023/08/13 00:12:40;;;;;;;8.75;4.45;;;;;;;;;;5010536;28;20042;-80
2023/08/13 00:15:11;;;;;;;7.65;3.22;;;;;;;;;;5011350;28;20054;-80
2023/08/13 00:17:44;;;;;;;7.82;3.00;;;;;;;;;;5009768;28;20076;-80
2023/08/13 00:20:15;;;;;;;6.45;2.80;;;;;;;;;;5009821;28;20496;-80
2023/08/13 00:22:46;;;;;;;5.60;2.22;;;;;;;;;;5009826;28;20042;-81
2023/08/13 00:25:16;;;;;;;4.85;2.40;;;;;;;;;;5009422;28;20042;-81
2023/08/13 00:27:48;;;;;;;4.95;2.58;;;;;;;;;;5009219;28;20053;-81
2023/08/13 00:30:18;;;;;;;4.70;1.58;;;;;;;;;;5010424;28;20057;-80
2023/08/13 00:32:51;;;;;;;4.85;1.40;;;;;;;;;;5010569;28;20060;-80
2023/08/13 00:35:25;;;;;;;6.15;1.60;;;;;;;;;;5010203;28;20042;-80
2023/08/13 00:37:57;;;;;;;2.67;1.35;;;;;;;;;;5010320;28;20057;-80
2023/08/13 00:40:28;;;;;;;4.20;1.40;;;;;;;;;;5010603;28;20050;-80
2023/08/13 00:43:02;;;;;;;4.35;1.25;;;;;;;;;;5008910;28;20072;-80
2023/08/13 00:45:35;;;;;;;3.97;1.88;;;;;;;;;;5009608;28;20037;-80
2023/08/13 00:48:09;;;;;;;5.55;1.38;;;;;;;;;;5007569;28;20070;-80
2023/08/13 00:50:40;;;;;;;3.80;1.30;;;;;;;;;;4990840;28;20054;-80
2023/08/13 00:53:13;;;;;;;2.65;1.10;;;;;;;;;;4989697;28;20050;-81
2023/08/13 00:55:45;;;;;;;4.18;1.13;;;;;;;;;;4990506;28;20054;-80
2023/08/13 00:58:19;;;;;;;3.85;1.25;;;;;;;;;;4989177;28;20058;-81
2023/08/13 01:00:50;;;;;;;3.38;1.60;;;;;;;;;;5066520;28;20054;-81
2023/08/13 01:03:24;;;;;;;3.80;1.38;;;;;;;;;;5113287;28;20054;-81
2023/08/13 01:05:58;;;;;;;2.72;1.30;;;;;;;;;;5113384;28;20051;-81
2023/08/13 01:08:44;;;;;;;3.00;1.08;;;;;;;;;;5113027;28;20051;-80
2023/08/13 01:11:41;;;;;;;4.50;0.98;;;;;;;;;;5090212;28;20059;-80
2023/08/13 01:14:43;;;;;;;3.88;0.90;;;;;;;;;;5072717;28;20048;-79
2023/08/13 01:17:17;;;;;;;2.15;0.80;;;;;;;;;;5062478;28;20155;-79
2023/08/13 01:19:51;;;;;;;2.03;0.73;;;;;;;;;;5090277;28;20051;-79
2023/08/13 01:22:37;;;;;;;3.63;1.08;;;;;;;;;;5090252;28;20055;-78
2023/08/13 01:25:12;;;;;;;5.60;0.80;;;;;;;;;;5090107;28;20051;-79
2023/08/13 01:27:57;;;;;;;2.60;0.80;;;;;;;;;;5090083;28;20055;-79
2023/08/13 01:30:44;;;;;;;;;;;;;;;;;;5037421;28;20057;-80
2023/08/13 01:33:28;;;;;;;3.22;0.95;;;;;;;;;;4987388;28;19921;-80
2023/08/13 01:36:03;;;;;;;4.55;0.70;;;;;;;;;;4987108;28;20050;-79
2023/08/13 01:38:36;;;;;;;3.97;1.30;;;;;;;;;;4985363;28;20051;-79
2023/08/13 01:41:06;;;;;;;8.68;0.90;;;;;;;;;;4987672;28;20067;-79
2023/08/13 01:43:37;;;;;;;2.33;0.90;;;;;;;;;;4987410;28;20053;-79
2023/08/13 01:46:08;;;;;;;1.27;0.50;;;;;;;;;;4986855;28;20051;-79
2023/08/13 01:48:51;;;;;;;4.03;1.00;;;;;;;;;;4986364;28;20408;-79
2023/08/13 01:51:25;;;;;;;4.43;1.25;;;;;;;;;;4970272;28;20192;-79
2023/08/13 01:53:56;;;;;;;3.92;1.10;;;;;;;;;;4987296;28;20050;-79
2023/08/13 01:56:30;;;;;;;4.20;0.85;;;;;;;;;;4989337;28;20066;-80
2023/08/13 01:59:01;;;;;;;3.83;0.95;;;;;;;;;;5004314;28;20059;-79
2023/08/13 02:01:32;;;;;;;6.30;1.48;;;;;;;;;;5007147;28;20057;-79
2023/08/13 02:04:02;;;;;;;2.45;0.68;;;;;;;;;;5009392;28;20511;-79
2023/08/13 02:06:35;;;;;;;2.58;0.70;;;;;;;;;;5007695;28;20054;-79
2023/08/13 02:09:06;;;;;;;4.15;1.13;;;;;;;;;;5008374;28;20050;-79
2023/08/13 02:11:40;;;;;;;5.15;3.42;;;;;;;;;;5009005;28;20042;-79
2023/08/13 02:14:11;;;;;;;4.07;0.93;;;;;;;;;;5007372;28;20412;-79
2023/08/13 02:16:43;;;;;;;2.88;0.80;;;;;;;;;;5008705;28;20053;-80
2023/08/13 02:19:16;;;;;;;1.88;0.80;;;;;;;;;;4993329;28;20531;-79
2023/08/13 02:21:47;;;;;;;7.05;1.33;;;;;;;;;;5007342;28;20045;-79
2023/08/13 02:24:17;;;;;;;2.67;0.82;;;;;;;;;;5008359;28;20116;-79
2023/08/13 02:26:50;;;;;;;4.03;1.00;;;;;;;;;;5008799;28;20066;-79
2023/08/13 02:29:24;;;;;;;4.78;1.15;;;;;;;;;;5008788;28;20060;-79
2023/08/13 02:32:05;;;;;;;1.95;0.80;;;;;;;;;;5006884;28;20409;-80
2023/08/13 02:34:46;;;;;;;2.33;0.70;;;;;;;;;;5008632;28;20042;-79
2023/08/13 02:37:17;;;;;;;2.03;0.73;;;;;;;;;;5007306;28;20056;-79
2023/08/13 02:39:47;;;;;;;2.63;0.98;;;;;;;;;;5008234;28;20046;-80
2023/08/13 02:42:18;;;;;;;1.77;0.80;;;;;;;;;;5008686;28;20048;-80
2023/08/13 02:44:51;;;;;;;2.83;1.02;;;;;;;;;;5007387;28;20077;-80
2023/08/13 02:47:22;;;;;;;6.72;1.38;;;;;;;;;;5008543;28;20451;-80
2023/08/13 02:49:52;;;;;;;4.13;0.90;;;;;;;;;;5004547;28;20060;-80
2023/08/13 02:52:23;;;;;;;4.55;1.20;;;;;;;;;;5008195;28;20053;-81
2023/08/13 02:54:54;;;;;;;6.15;1.40;;;;;;;;;;5007097;28;20050;-80
2023/08/13 02:57:25;;;;;;;5.20;1.10;;;;;;;;;;5008300;28;20050;-79
2023/08/13 02:59:56;;;;;;;4.47;1.40;;;;;;;;;;5008336;28;20357;-79
2023/08/13 03:02:27;;;;;;;4.35;1.13;;;;;;;;;;5006791;28;20046;-79
2023/08/13 03:04:58;;;;;;;5.55;1.20;;;;;;;;;;5006250;28;20062;-79
2023/08/13 03:07:34;;;;;;;4.22;1.02;;;;;;;;;;5006700;28;20050;-80
2023/08/13 03:10:10;;;;;;;2.92;1.85;;;;;;;;;;5008053;28;20057;-81
2023/08/13 03:12:46;;;;;;;4.28;0.82;;;;;;;;;;5008161;28;20049;-80
2023/08/13 03:15:17;;;;;;;2.83;0.82;;;;;;;;;;5006742;28;20496;-81
2023/08/13 03:17:50;;;;;;;2.17;0.88;;;;;;;;;;5008088;28;20042;-81
2023/08/13 03:20:21;;;;;;;5.78;1.13;;;;;;;;;;5007901;28;20400;-81
2023/08/13 03:22:55;;;;;;;3.90;1.00;;;;;;;;;;5008094;28;20064;-80
2023/08/13 03:25:26;;;;;;;2.08;0.80;;;;;;;;;;5008492;28;20053;-80
2023/08/13 03:27:57;;;;;;;2.95;1.00;;;;;;;;;;5007934;28;20045;-81
2023/08/13 03:30:30;;;;;;;2.55;1.02;;;;;;;;;;5038194;28;20043;-80
2023/08/13 03:33:07;;;;;;;2.05;1.05;;;;;;;;;;5109921;28;20097;-80
2023/08/13 03:35:38;;;;;;;2.33;0.90;;;;;;;;;;5109396;28;20047;-80
2023/08/13 03:38:13;;;;;;;2.78;0.80;;;;;;;;;;5111248;28;20050;-80
2023/08/13 03:40:44;;;;;;;2.92;1.20;;;;;;;;;;5111412;28;20070;-80
2023/08/13 03:43:20;;;;;;;1.60;0.77;;;;;;;;;;5110786;28;20478;-80
2023/08/13 03:45:50;;;;;;;4.05;1.10;;;;;;;;;;5110957;28;20237;-80
2023/08/13 03:48:23;;;;;;;4.32;1.05;;;;;;;;;;5095030;28;20062;-80
2023/08/13 03:50:53;;;;;;;1.85;0.60;;;;;;;;;;5094629;28;20166;-80
2023/08/13 03:53:26;;;;;;;;;;;;;;;;;;5094818;28;20051;-81
2023/08/13 03:55:57;;;;;;;3.58;0.80;;;;;;;;;;5113369;28;19920;-80
2023/08/13 03:58:30;;;;;;;3.72;0.82;;;;;;;;;;5115202;28;20386;-81
2023/08/13 04:01:07;;;;;;;1.80;0.52;;;;;;;;;;5116456;28;20051;-78
2023/08/13 04:03:44;;;;;;;3.40;0.75;;;;;;;;;;5114916;28;20058;-77
2023/08/13 04:06:18;;;;;;;2.65;0.82;;;;;;;;;;5115057;28;20054;-80
2023/08/13 04:08:50;;;;;;;1.77;0.93;;;;;;;;;;5114923;28;20485;-80
2023/08/13 04:11:23;;;;;;;2.88;0.70;;;;;;;;;;5114401;28;20462;-80
2023/08/13 04:13:54;;;;;;;1.08;0.50;;;;;;;;;;5116592;28;20047;-80
2023/08/13 04:16:24;;;;;;;3.75;0.70;;;;;;;;;;5114334;28;20047;-80
2023/08/13 04:18:56;;;;;;;2.67;0.73;;;;;;;;;;5115357;28;20490;-80
2023/08/13 04:21:29;;;;;;;4.97;1.02;;;;;;;;;;5114517;28;20047;-80
2023/08/13 04:24:01;;;;;;;2.13;0.70;;;;;;;;;;5115907;28;20228;-80
2023/08/13 04:26:32;;;;;;;1.35;0.65;;;;;;;;;;5114089;28;20056;-80
2023/08/13 04:29:04;;;;;;;2.85;0.77;;;;;;;;;;5113665;28;20052;-80
2023/08/13 04:31:38;;;;;;;4.13;1.00;;;;;;;;;;5097867;28;20054;-80
2023/08/13 04:34:10;;;;;;;1.85;0.73;;;;;;;;;;5114715;28;20054;-80
2023/08/13 04:36:40;;;;;;;3.90;0.70;;;;;;;;;;5114006;28;20050;-80
2023/08/13 04:39:13;;;;;;;5.45;0.80;;;;;;;;;;5114455;28;20054;-79
2023/08/13 04:41:47;;;;;;;3.38;0.68;;;;;;;;;;5114585;28;20040;-80
2023/08/13 04:44:20;;;;;;;2.60;0.70;;;;;;;;;;5114043;28;20062;-80
2023/08/13 04:46:54;;;;;;;4.05;0.73;;;;;;;;;;5114395;28;20051;-80
2023/08/13 04:49:25;;;;;;;4.50;0.80;;;;;;;;;;5114033;28;20051;-79
2023/08/13 04:51:58;;;;;;;2.40;0.60;;;;;;;;;;5113712;28;20044;-79
2023/08/13 04:54:32;;;;;;;2.63;0.70;;;;;;;;;;5114597;28;20062;-79
2023/08/13 04:57:03;;;;;;;2.58;0.90;;;;;;;;;;5113515;28;20048;-80
2023/08/13 04:59:34;;;;;;;5.07;0.82;;;;;;;;;;5113520;28;20055;-80
2023/08/13 05:02:08;;;;;;;1.60;1.00;;;;;;;;;;5113358;28;20047;-79
2023/08/13 05:04:44;;;;;;;5.32;0.70;;;;;;;;;;5113313;28;20055;-79
2023/08/13 05:07:15;;;;;;;3.20;0.70;;;;;;;;;;5113666;28;20051;-80
2023/08/13 05:09:45;;;;;;;3.53;0.70;;;;;;;;;;5115482;28;20055;-79
2023/08/13 05:12:18;;;;;;;1.63;0.70;;;;;;;;;;5113633;28;20044;-80
2023/08/13 05:14:49;;;;;;;4.20;1.02;;;;;;;;;;5113615;28;20051;-80
2023/08/13 05:17:22;;;;;;;1.98;0.93;;;;;;;;;;5114202;28;20062;-80
2023/08/13 05:19:55;;;;;;;4.35;0.95;;;;;;;;;;5115112;28;20044;-79
2023/08/13 05:22:28;;;;;;;8.13;0.98;;;;;;;;;;5113533;28;20055;-80
2023/08/13 05:25:03;;;;;;;3.00;0.73;;;;;;;;;;5114296;28;20058;-79
2023/08/13 05:27:35;;;;;;;2.22;0.85;;;;;;;;;;5112745;28;20532;-80
2023/08/13 05:30:08;;;;;;;1.27;0.70;;;;;;;;;;5113359;28;20043;-80
2023/08/13 05:32:46;;;;;;;2.58;0.80;;;;;;;;;;5113273;28;20394;-80
2023/08/13 05:35:25;;;;;;;4.05;0.90;;;;;;;;;;5113163;28;20055;-80
2023/08/13 05:37:57;;;;;;;3.13;1.50;;;;;;;;;;5113665;28;20044;-80
2023/08/13 05:40:34;;;;;;;1.80;0.80;;;;;;;;;;5113155;28;20058;-80
2023/08/13 05:43:05;;;;;;;3.08;1.05;;;;;;;;;;5113458;28;20059;-80
2023/08/13 05:45:36;;;;;;;3.03;1.13;;;;;;;;;;5114452;28;20382;-80
2023/08/13 05:48:07;;;;;;;4.13;1.40;;;;;;;;;;5096290;28;20420;-80
2023/08/13 05:50:38;;;;;;;4.72;1.38;;;;;;;;;;5113156;28;20056;-79
2023/08/13 05:53:12;;;;;;;2.53;1.25;;;;;;;;;;5096884;28;20051;-80
2023/08/13 05:55:47;;;;;;;2.65;1.25;;;;;;;;;;5113236;28;20497;-80
2023/08/13 05:58:18;;;;;;;3.70;1.30;;;;;;;;;;5113500;28;20047;-79
2023/08/13 06:00:48;;;;;;;6.22;1.10;;;;;;;;;;5112556;28;20060;-79
2023/08/13 06:03:19;;;;;;;3.20;1.30;;;;;;;;;;5114301;28;20040;-80
2023/08/13 06:05:53;;;;;;;13.73;1.70;;;;;;;;;;5112597;28;20086;-79
2023/08/13 06:08:24;;;;;;;3.65;1.23;;;;;;;;;;5113077;28;20421;-80
2023/08/13 06:10:56;;;;;;;5.85;1.25;;;;;;;;;;5114136;28;20043;-80
2023/08/13 06:13:28;;;;;;;6.15;1.30;;;;;;;;;;5114169;28;20054;-79
2023/08/13 06:16:00;;;;;;;4.35;1.27;;;;;;;;;;5113098;28;20062;-80
2023/08/13 06:18:31;;;;;;;8.68;1.45;;;;;;;;;;5112698;28;20052;-80
2023/08/13 06:21:03;;;;;;;7.22;1.73;;;;;;;;;;5113293;28;20107;-80
2023/08/13 06:23:36;;;;;;;7.00;1.02;;;;;;;;;;5113100;28;20054;-80
2023/08/13 06:26:07;;;;;;;5.47;1.17;;;;;;;;;;5113629;28;20062;-80
2023/08/13 06:28:38;;;;;;;5.97;1.10;;;;;;;;;;5113069;28;20047;-80
2023/08/13 06:31:09;;;;;;;2.40;0.98;;;;;;;;;;5112975;28;20047;-80
2023/08/13 06:33:51;;;;;;;2.83;0.93;;;;;;;;;;5112904;28;20070;-79
2023/08/13 06:36:25;;;;;;;6.18;1.42;;;;;;;;;;5112785;28;20043;-80
2023/08/13 06:38:56;;;;;;;3.90;1.08;;;;;;;;;;5113068;28;20044;-79
2023/08/13 06:41:26;;;;;;;3.63;1.25;;;;;;;;;;5112773;28;20070;-80
2023/08/13 06:44:07;;;;;;;4.85;1.10;;;;;;;;;;5111636;28;20048;-80
2023/08/13 06:46:38;;;;;;;3.45;1.20;;;;;;;;;;5112536;28;20055;-80
2023/08/13 06:49:08;;;;;;;6.25;1.25;;;;;;;;;;5112500;28;20044;-80
2023/08/13 06:51:40;;;;;;;4.45;2.20;;;;;;;;;;5112382;28;20051;-80
2023/08/13 06:54:10;;;;;;;5.28;1.92;;;;;;;;;;5111342;28;20051;-80
2023/08/13 06:56:42;;;;;;;4.22;1.20;;;;;;;;;;5112748;28;20051;-80
2023/08/13 06:59:12;;;;;;;6.10;1.08;;;;;;;;;;5112936;28;20051;-80
2023/08/13 07:01:44;;;;;;;3.97;1.10;;;;;;;;;;5112690;28;20051;-80
2023/08/13 07:04:15;;;;;;;6.07;1.10;;;;;;;;;;5112211;28;20048;-80
2023/08/13 07:06:46;;;;;;;2.90;0.90;;;;;;;;;;5112423;28;20056;-80
2023/08/13 07:09:16;;;;;;;3.42;1.50;;;;;;;;;;5111288;28;20058;-81
2023/08/13 07:11:48;;;;;;;7.88;1.10;;;;;;;;;;5112950;28;20482;-80
2023/08/13 07:14:20;;;;;;;2.72;1.10;;;;;;;;;;5112652;28;20047;-80
2023/08/13 07:16:56;;;;;;;2.60;1.00;;;;;;;;;;5112691;28;20047;-81
2023/08/13 07:19:32;;;;;;;2.58;1.02;;;;;;;;;;5112508;28;20059;-80
2023/08/13 07:22:04;;;;;;;2.45;0.93;;;;;;;;;;5112249;28;20048;-79
2023/08/13 07:24:35;;;;;;;3.30;1.20;;;;;;;;;;5113040;28;20067;-80
2023/08/13 07:27:06;;;;;;;5.90;1.15;;;;;;;;;;5112595;28;20051;-80
2023/08/13 07:29:37;;;;;;;2.95;1.15;;;;;;;;;;5112597;28;20047;-79
2023/08/13 07:32:07;;;;;;;4.70;1.27;;;;;;;;;;5115870;28;20051;-80
2023/08/13 07:34:40;;;;;;;3.83;1.10;;;;;;;;;;5116807;28;20470;-80
2023/08/13 07:37:13;;;;;;;4.63;1.50;;;;;;;;;;5114742;28;20406;-80
2023/08/13 07:39:44;;;;;;;4.00;1.40;;;;;;;;;;5116121;28;20514;-79
2023/08/13 07:42:15;;;;;;;2.88;1.02;;;;;;;;;;5117286;28;20047;-80
2023/08/13 07:44:47;;;;;;;6.43;1.33;;;;;;;;;;5116628;28;20074;-80
2023/08/13 07:47:19;;;;;;;3.88;0.98;;;;;;;;;;5115762;28;20378;-80
2023/08/13 07:49:49;;;;;;;3.25;1.30;;;;;;;;;;5116104;28;20055;-80
2023/08/13 07:52:20;;;;;;;3.58;1.13;;;;;;;;;;5117137;28;20044;-80
2023/08/13 07:54:53;;;;;;;4.18;1.20;;;;;;;;;;5115448;28;20062;-80
2023/08/13 07:57:26;;;;;;;4.45;1.30;;;;;;;;;;5115848;28;20054;-80
2023/08/13 07:59:57;;;;;;;3.85;1.30;;;;;;;;;;5116697;28;20047;-80
2023/08/13 08:02:39;;;;;;;3.92;1.00;;;;;;;;;;5118747;28;20059;-80
2023/08/13 08:05:16;;;;;;;2.38;1.23;;;;;;;;;;5115990;28;20052;-80
2023/08/13 08:07:53;;;;;;;7.40;1.17;;;;;;;;;;5115634;28;20052;-80
2023/08/13 08:10:24;;;;;;;3.28;1.05;;;;;;;;;;5116170;28;20501;-80
2023/08/13 08:12:57;;;;;;;4.25;1.10;;;;;;;;;;5116466;28;20048;-80
2023/08/13 08:15:28;;;;;;;5.13;1.20;;;;;;;;;;5115698;28;20409;-80
2023/08/13 08:18:03;;;;;;;2.38;0.90;;;;;;;;;;5116332;28;20048;-79
2023/08/13 08:20:35;;;;;;;5.63;1.50;;;;;;;;;;5116208;28;20043;-80
2023/08/13 08:23:05;;;;;;;3.92;1.25;;;;;;;;;;5114853;28;20059;-80
2023/08/13 08:25:37;;;;;;;4.93;1.95;;;;;;;;;;5115355;28;20047;-80
2023/08/13 08:28:15;;;;;;;5.35;1.23;;;;;;;;;;5115337;28;20044;-80
2023/08/13 08:30:45;;;;;;;6.13;1.48;;;;;;;;;;5116211;28;20405;-80
2023/08/13 08:33:16;;;;;;;2.88;1.10;;;;;;;;;;5115054;28;20051;-81
2023/08/13 08:35:46;;;;;;;5.43;1.20;;;;;;;;;;5115600;28;20047;-80
2023/08/13 08:38:17;;;;;;;2.38;1.13;;;;;;;;;;5115635;28;20051;-80
2023/08/13 08:40:52;;;;;;;2.95;1.40;;;;;;;;;;5114773;28;20070;-80
2023/08/13 08:43:29;;;;;;;4.60;1.50;;;;;;;;;;5113051;28;20047;-80
2023/08/13 08:46:01;;;;;;;2.67;1.55;;;;;;;;;;5116242;28;20046;-80
2023/08/13 08:48:34;;;;;;;3.10;1.63;;;;;;;;;;5114866;28;20057;-80
2023/08/13 08:51:09;;;;;;;6.68;1.65;;;;;;;;;;5113610;28;20139;-80
2023/08/13 08:53:41;;;;;;;6.22;1.73;;;;;;;;;;5115238;28;20051;-80
2023/08/13 08:56:11;;;;;;;3.78;1.77;;;;;;;;;;5114743;28;20047;-80
2023/08/13 08:58:44;;;;;;;4.65;2.25;;;;;;;;;;5113093;28;20086;-80
2023/08/13 09:01:15;;;;;;;4.57;1.98;;;;;;;;;;5115444;28;20044;-80
2023/08/13 09:03:45;;;;;;;4.18;1.98;;;;;;;;;;5114498;28;20058;-80
2023/08/13 09:06:16;;;;;;;4.35;1.90;;;;;;;;;;5114179;28;20512;-80
2023/08/13 09:08:52;;;;;;;7.28;1.83;;;;;;;;;;5114538;28;20043;-81
2023/08/13 09:11:24;;;;;;;3.90;1.90;;;;;;;;;;5115248;28;20039;-80
2023/08/13 09:13:54;;;;;;;3.53;1.60;;;;;;;;;;5114495;28;20055;-80
2023/08/13 09:16:28;;;;;;;2.67;1.83;;;;;;;;;;5114539;28;20047;-80
2023/08/13 09:19:02;;;;;;;5.00;1.63;;;;;;;;;;5114810;28;20048;-80
2023/08/13 09:21:58;;;;;;;4.68;1.73;;;;;;;;;;5114178;28;20044;-80
2023/08/13 09:24:43;;;;;;;3.60;1.52;;;;;;;;;;5114273;28;20074;-80
2023/08/13 09:27:17;;;;;;;2.72;1.23;;;;;;;;;;5113232;28;20052;-80
2023/08/13 09:29:57;;;;;;;3.17;1.73;;;;;;;;;;5113177;28;20399;-80
2023/08/13 09:32:33;;;;;;;5.68;1.73;;;;;;;;;;5035660;28;20048;-80
2023/08/13 09:35:04;;;;;;;3.80;1.88;;;;;;;;;;5097652;28;20434;-79
2023/08/13 09:37:35;;;;;;;2.42;1.27;;;;;;;;;;5014504;28;20508;-80
2023/08/13 09:40:08;;;;;;;3.28;1.63;;;;;;;;;;5057398;28;20067;-80
2023/08/13 09:42:47;;;;;;;5.50;1.83;;;;;;;;;;5040890;28;20046;-79
2023/08/13 09:45:21;;;;;;;4.65;2.15;;;;;;;;;;5024446;28;20124;-80
2023/08/13 09:47:55;;;;;;;6.22;2.08;;;;;;;;;;5113533;28;20063;-80
2023/08/13 09:50:34;;;;;;;4.63;1.98;;;;;;;;;;5113565;28;20059;-78
2023/08/13 09:53:14;;;;;;;4.82;2.10;;;;;;;;;;5113498;28;20053;-78
2023/08/13 09:56:01;;;;;;;8.02;2.55;;;;;;;;;;5113647;28;20397;-78
2023/08/13 09:58:32;;;;;;;5.88;1.95;;;;;;;;;;5113455;28;20106;-78
2023/08/13 10:01:06;;;;;;;6.10;2.08;;;;;;;;;;5114658;28;20378;-78
2023/08/13 10:03:39;;;;;;;5.22;2.10;;;;;;;;;;5112651;28;20050;-80
2023/08/13 10:06:13;;;;;;;4.85;2.20;;;;;;;;;;5114150;28;20048;-80
2023/08/13 10:08:44;;;;;;;5.95;2.50;;;;;;;;;;5112038;28;20477;-80
2023/08/13 10:11:17;;;;;;;9.07;2.33;;;;;;;;;;5113007;28;20048;-80
2023/08/13 10:13:50;;;;;;;7.18;2.08;;;;;;;;;;5114261;28;20478;-80
2023/08/13 10:16:24;;;;;;;4.63;2.00;;;;;;;;;;5113954;28;20046;-80
2023/08/13 10:18:58;;;;;;;6.53;2.63;;;;;;;;;;5114042;28;20058;-79
2023/08/13 10:21:38;;;;;;;6.45;2.45;;;;;;;;;;5113362;28;20047;-80
2023/08/13 10:24:12;;;;;;;4.97;2.20;;;;;;;;;;5112609;28;20046;-80
2023/08/13 10:26:45;;;;;;;3.92;2.00;;;;;;;;;;5113637;28;20044;-80
2023/08/13 10:29:20;;;;;;;6.78;2.55;;;;;;;;;;5113858;28;20108;-80
2023/08/13 10:32:16;;;;;;;5.82;2.55;;;;;;;;;;5113902;28;20512;-80
2023/08/13 10:34:50;;;;;;;5.13;2.40;;;;;;;;;;5105749;28;20056;-80
2023/08/13 10:37:23;;;;;;;9.73;2.28;;;;;;;;;;5113379;28;20047;-80
2023/08/13 10:39:58;;;;;;;4.90;2.42;;;;;;;;;;5113677;28;20039;-80
2023/08/13 10:42:36;;;;;;;;;;;;;;;;;;5112249;28;20044;-80
2023/08/13 10:45:13;;;;;;;4.88;2.13;;;;;;;;;;5113523;28;19919;-80
2023/08/13 10:47:54;;;;;;;6.43;2.63;;;;;;;;;;5113450;28;20036;-80
2023/08/13 10:50:41;;;;;;;7.50;2.42;;;;;;;;;;5113578;28;20047;-80
2023/08/13 10:53:27;;;;;;;9.00;2.33;;;;;;;;;;5113245;28;20047;-80
2023/08/13 10:56:02;;;;;;;7.43;2.28;;;;;;;;;;5113827;28;20077;-80
2023/08/13 10:58:39;;;;;;;6.35;2.47;;;;;;;;;;5113408;28;20054;-80
2023/08/13 11:01:11;;;;;;;5.65;2.80;;;;;;;;;;5113997;28;20043;-80
2023/08/13 11:03:47;;;;;;;5.03;2.30;;;;;;;;;;5112462;28;20058;-80
2023/08/13 11:06:22;;;;;;;6.07;2.42;;;;;;;;;;5111832;28;20048;-80
2023/08/13 11:08:53;;;;;;;6.10;2.10;;;;;;;;;;5112937;28;20516;-80
2023/08/13 11:11:24;;;;;;;7.95;2.25;;;;;;;;;;5113599;28;20039;-80
2023/08/13 11:13:55;;;;;;;5.45;2.28;;;;;;;;;;5108683;28;20039;-80
2023/08/13 11:16:30;;;;;;;9.63;2.33;;;;;;;;;;5009649;28;20052;-80
2023/08/13 11:19:04;;;;;;;5.70;2.20;;;;;;;;;;5009897;28;20042;-81
2023/08/13 11:21:37;;;;;;;4.93;2.20;;;;;;;;;;5009847;28;20046;-80
2023/08/13 11:24:10;;;;;;;5.20;2.30;;;;;;;;;;5009894;28;20480;-80
2023/08/13 11:26:49;;;;;;;9.13;2.60;;;;;;;;;;5008695;28;20396;-80
2023/08/13 11:29:21;;;;;;;7.57;2.47;;;;;;;;;;5010512;28;20053;-79
2023/08/13 11:31:52;;;;;;;6.65;2.40;;;;;;;;;;5008848;28;20060;-80
2023/08/13 11:34:22;;;;;;;4.97;2.42;;;;;;;;;;5008735;28;20478;-80
2023/08/13 11:36:55;;;;;;;6.38;2.55;;;;;;;;;;5009152;28;20057;-80
2023/08/13 11:39:27;;;;;;;6.13;2.60;;;;;;;;;;4996329;28;20527;-80
2023/08/13 11:42:07;;;;;;;5.18;2.90;;;;;;;;;;5007686;28;20059;-81
2023/08/13 11:44:38;;;;;;;5.93;2.72;;;;;;;;;;5007434;28;20046;-80
2023/08/13 11:47:12;;;;;;;5.55;2.95;;;;;;;;;;5006920;28;20042;-80
2023/08/13 11:49:43;;;;;;;5.53;2.55;;;;;;;;;;5007131;28;20046;-80
2023/08/13 11:52:19;;;;;;;4.28;2.42;;;;;;;;;;5007574;28;20053;-81
2023/08/13 11:54:52;;;;;;;7.15;2.65;;;;;;;;;;5024719;28;20068;-81
2023/08/13 11:57:27;;;;;;;6.30;2.63;;;;;;;;;;5029426;28;20080;-81
2023/08/13 12:00:00;;;;;;;5.82;2.30;;;;;;;;;;5029293;28;20052;-80
2023/08/13 12:02:42;;;;;;;5.80;3.03;;;;;;;;;;5030279;28;20054;-80
2023/08/13 12:05:13;;;;;;;11.20;2.90;;;;;;;;;;5027564;28;20049;-80
2023/08/13 12:07:44;;;;;;;6.68;3.03;;;;;;;;;;5029340;28;20049;-80
2023/08/13 12:10:17;;;;;;;8.68;3.30;;;;;;;;;;5025192;28;20046;-80
2023/08/13 12:12:48;;;;;;;11.38;3.92;;;;;;;;;;5008650;28;20046;-81
2023/08/13 12:15:25;;;;;;;9.13;4.57;;;;;;;;;;5008816;28;20057;-81
2023/08/13 12:18:00;;;;;;;9.73;1.52;;;;;;;;;;5011491;28;20038;-80
2023/08/13 12:20:31;;;;;;;8.80;1.60;;;;;;;;;;5012840;28;20046;-80
2023/08/13 12:23:02;;;;;;;5.18;1.27;;;;;;;;;;5011439;28;20515;-81
2023/08/13 12:25:33;;;;;;;2.47;1.10;;;;;;;;;;4993586;28;20046;-80
2023/08/13 12:28:03;;;;;;;6.45;1.45;;;;;;;;;;5010682;28;20053;-80
2023/08/13 12:30:37;;;;;;;5.20;2.75;;;;;;;;;;5012774;28;20049;-79
2023/08/13 12:33:10;;;;;;;4.25;1.58;;;;;;;;;;5012193;28;20054;-81
2023/08/13 12:35:42;;;;;;;7.68;2.50;;;;;;;;;;5012688;28;20038;-80
2023/08/13 12:38:12;;;;;;;3.15;1.80;;;;;;;;;;5009943;28;20042;-79
2023/08/13 12:40:45;;;;;;;5.15;1.80;;;;;;;;;;5008829;28;20037;-79
2023/08/13 12:43:20;;;;;;;5.88;2.65;;;;;;;;;;5009517;28;20050;-79
2023/08/13 12:45:53;;;;;;;8.93;2.50;;;;;;;;;;4997445;28;20046;-79
2023/08/13 12:48:23;;;;;;;8.55;2.05;;;;;;;;;;5011819;28;20064;-79
2023/08/13 12:50:59;;;;;;;10.80;2.72;;;;;;;;;;5012756;28;20475;-80
2023/08/13 12:53:31;;;;;;;11.45;3.47;;;;;;;;;;5012749;28;20046;-81
2023/08/13 12:56:05;;;;;;;6.88;2.33;;;;;;;;;;5010937;28;20069;-81
2023/08/13 12:58:35;;;;;;;2.97;1.02;;;;;;;;;;5012308;28;20053;-82
2023/08/13 13:01:07;;;;;;;3.08;1.23;;;;;;;;;;5012536;28;20056;-79
2023/08/13 13:03:38;;;;;;;8.65;2.50;;;;;;;;;;5010312;28;20057;-79
2023/08/13 13:06:09;;;;;;;5.93;2.10;;;;;;;;;;5011157;28;20049;-79
2023/08/13 13:08:39;;;;;;;5.65;1.83;;;;;;;;;;5010296;28;20054;-78
2023/08/13 13:11:10;;;;;;;5.85;1.52;;;;;;;;;;5009726;28;20046;-79
2023/08/13 13:13:44;;;;;;;8.57;1.83;;;;;;;;;;5010990;28;20046;-79
2023/08/13 13:16:18;;;;;;;9.30;2.47;;;;;;;;;;5010951;28;20046;-79
2023/08/13 13:18:50;;;;;;;4.55;1.80;;;;;;;;;;5011885;28;20485;-80
2023/08/13 13:21:20;;;;;;;3.55;1.50;;;;;;;;;;5010145;28;20080;-79
2023/08/13 13:23:51;;;;;;;5.43;2.22;;;;;;;;;;5012767;28;20521;-79
2023/08/13 13:26:26;;;;;;;5.15;2.03;;;;;;;;;;4996049;28;20050;-79
2023/08/13 13:28:57;;;;;;;;;;;;;;;;;;5011734;28;20480;-79
2023/08/13 13:31:29;;;;;;;5.35;2.17;;;;;;;;;;5009380;28;19922;-80
2023/08/13 13:33:59;;;;;;;7.07;3.35;;;;;;;;;;5012872;28;20053;-80
2023/08/13 13:36:30;;;;;;;6.75;3.20;;;;;;;;;;5011177;28;20396;-79
2023/08/13 13:39:01;;;;;;;7.93;2.88;;;;;;;;;;4995606;28;20061;-78
2023/08/13 13:41:35;;;;;;;5.18;2.40;;;;;;;;;;5011610;28;20046;-79
2023/08/13 13:44:07;;;;;;;6.70;2.33;;;;;;;;;;5009464;28;20056;-78
2023/08/13 13:46:38;;;;;;;5.13;2.35;;;;;;;;;;5009440;28;20075;-79
2023/08/13 13:49:11;;;;;;;;;;;;;;;;;;5012721;28;20077;-79
2023/08/13 13:51:42;;;;;;;5.10;1.90;;;;;;;;;;5010020;28;20329;-79
2023/08/13 13:54:13;;;;;;;8.05;2.40;;;;;;;;;;5012075;28;20073;-79
2023/08/13 13:56:49;;;;;;;9.68;2.60;;;;;;;;;;5012547;28;20053;-79
2023/08/13 13:59:19;;;;;;;5.63;2.90;;;;;;;;;;5012564;28;20053;-79
2023/08/13 14:01:51;;;;;;;8.18;2.60;;;;;;;;;;5012539;28;20432;-79
2023/08/13 14:04:21;;;;;;;6.65;2.53;;;;;;;;;;5011347;28;20049;-79
2023/08/13 14:07:00;;;;;;;5.13;2.25;;;;;;;;;;5011969;28;20445;-80
2023/08/13 14:09:34;;;;;;;4.95;2.00;;;;;;;;;;5011512;28;20060;-79
2023/08/13 14:12:06;;;;;;;6.38;1.80;;;;;;;;;;5012318;28;20054;-79
2023/08/13 14:14:37;;;;;;;5.70;2.00;;;;;;;;;;5011116;28;20046;-79
2023/08/13 14:17:10;;;;;;;5.25;1.65;;;;;;;;;;5011805;28;20072;-80
2023/08/13 14:19:43;;;;;;;;;;;;;;;;;;5012233;28;20056;-80
2023/08/13 14:22:16;;;;;;;6.90;2.00;;;;;;;;;;5012364;28;20012;-79
2023/08/13 14:24:49;;;;;;;4.65;1.88;;;;;;;;;;5010303;28;20037;-80
2023/08/13 14:27:22;;;;;;;4.10;2.10;;;;;;;;;;5009542;28;20053;-79
2023/08/13 14:29:58;;;;;;;4.47;1.83;;;;;;;;;;5011489;28;20069;-79
2023/08/13 14:32:31;;;;;;;3.90;1.90;;;;;;;;;;5011195;28;20050;-80
2023/08/13 14:35:01;;;;;;;8.20;2.47;;;;;;;;;;5011270;28;20046;-79
2023/08/13 14:37:32;;;;;;;3.25;1.65;;;;;;;;;;4993049;28;20068;-80
2023/08/13 14:40:08;;;;;;;4.45;1.88;;;;;;;;;;5010838;28;20065;-79
2023/08/13 14:42:40;;;;;;;7.55;1.92;;;;;;;;;;5010352;28;20046;-79
2023/08/13 14:45:10;;;;;;;4.45;1.63;;;;;;;;;;5011415;28;20065;-80
2023/08/13 14:47:43;;;;;;;;;;;;;;;;;;5010393;28;20049;-79
2023/08/13 14:50:14;;;;;;;6.05;1.80;;;;;;;;;;5010554;28;19928;-80
2023/08/13 14:52:46;;;;;;;6.38;1.90;;;;;;;;;;5009792;28;20058;-80
2023/08/13 14:55:16;;;;;;;7.00;2.30;;;;;;;;;;5009614;28;20056;-80
2023/08/13 14:57:53;;;;;;;5.97;2.13;;;;;;;;;;4993089;28;20054;-80
2023/08/13 15:00:24;;;;;;;5.15;2.17;;;;;;;;;;5010967;28;20058;-80
2023/08/13 15:02:56;;;;;;;5.35;2.08;;;;;;;;;;5009818;28;20054;-79
2023/08/13 15:05:29;;;;;;;3.50;1.48;;;;;;;;;;4993532;28;20125;-80
2023/08/13 15:08:03;;;;;;;;;;;;;;;;;;5012452;28;20057;-80
2023/08/13 15:10:36;;;;;;;4.38;1.83;;;;;;;;;;5008139;28;19940;-81
2023/08/13 15:13:06;;;;;;;4.93;1.95;;;;;;;;;;5010063;28;20046;-80
2023/08/13 15:15:38;;;;;;;9.35;1.85;;;;;;;;;;5011070;28;20400;-80
2023/08/13 15:18:18;;;;;;;7.63;2.05;;;;;;;;;;5010023;28;20050;-80
2023/08/13 15:20:53;;;;;;;4.82;1.85;;;;;;;;;;5010129;28;20054;-80
2023/08/13 15:23:23;;;;;;;6.00;2.40;;;;;;;;;;4994078;28;20042;-80